Time;durP1;ratioP1;P1;durP2;ratioP2;P2;SDS_P1;SDS_P2;PMS_P1;PMS_P2;Temp;Humidity;BMP_temperature;BMP_pressure;BME280_temperature;BME280_humidity;BME280_pressure;Samples;Min_cycle;Max_cycle;Signal;HPM_P1;HPM_P2
2022/07/13 00:04:36;;;;;;;2.50;1.50;;;;;;;19.06;51.77;99131.45;234246;1199;139302;-57
2022/07/13 00:09:39;;;;;;;2.60;1.20;;;;;;;19.00;51.75;99125.17;234036;1200;138610;-58
2022/07/13 00:14:42;;;;;;;2.90;1.40;;;;;;;18.93;51.53;99121.02;234084;1199;138278;-58
2022/07/13 00:19:45;;;;;;;5.10;1.40;;;;;;;18.84;51.77;99123.25;234188;1199;140122;-56
2022/07/13 00:24:48;;;;;;;2.10;1.50;;;;;;;18.81;51.74;99119.84;234110;1199;139288;-58
2022/07/13 00:29:51;;;;;;;3.10;1.60;;;;;;;18.77;51.78;99117.98;234105;1199;138584;-60
2022/07/13 00:34:56;;;;;;;3.60;1.40;;;;;;;18.74;51.71;99116.20;234257;1199;138687;-59
2022/07/13 00:40:02;;;;;;;3.90;1.10;;;;;;;18.66;51.49;99113.59;234238;1199;138911;-59
2022/07/13 00:45:06;;;;;;;5.50;1.30;;;;;;;18.61;51.71;99111.58;234238;1199;139013;-58
2022/07/13 00:50:10;;;;;;;4.00;1.50;;;;;;;18.56;51.65;99115.05;234234;1199;138957;-57
2022/07/13 00:55:14;;;;;;;4.20;1.40;;;;;;;18.52;51.72;99117.27;234209;1199;138546;-58
2022/07/13 01:00:17;;;;;;;5.80;1.50;;;;;;;18.49;51.53;99121.94;234204;1199;138874;-58
2022/07/13 01:05:20;;;;;;;4.10;1.50;;;;;;;18.41;51.63;99122.43;234249;1199;138982;-57
2022/07/13 01:10:25;;;;;;;4.00;1.60;;;;;;;18.35;51.61;99116.89;234094;1199;138457;-58
2022/07/13 01:15:28;;;;;;;4.60;1.60;;;;;;;18.28;51.65;99114.71;234150;1199;138699;-60
2022/07/13 01:20:32;;;;;;;3.20;1.90;;;;;;;18.22;51.67;99112.38;234149;1199;138614;-61
2022/07/13 01:25:35;;;;;;;2.60;1.40;;;;;;;18.17;51.71;99113.49;234107;1199;138856;-59
2022/07/13 01:30:38;;;;;;;7.70;1.40;;;;;;;18.09;51.79;99118.60;234188;1199;138728;-60
2022/07/13 01:35:41;;;;;;;4.70;1.40;;;;;;;18.00;51.70;99112.78;234133;1199;139055;-61
2022/07/13 01:40:44;;;;;;;5.40;1.50;;;;;;;17.88;51.97;99115.63;234213;1201;139647;-60
2022/07/13 01:45:47;;;;;;;3.70;1.60;;;;;;;17.78;52.08;99113.32;234125;1199;140827;-61
2022/07/13 01:50:50;;;;;;;4.90;1.70;;;;;;;17.76;51.99;99115.98;233765;1199;138303;-57
2022/07/13 01:55:53;;;;;;;6.60;1.80;;;;;;;17.72;52.09;99119.40;234162;1199;139473;-58
2022/07/13 02:00:58;;;;;;;3.50;1.80;;;;;;;17.64;52.30;99123.16;234150;1199;139717;-59
2022/07/13 02:06:01;;;;;;;4.50;1.90;;;;;;;17.59;52.45;99125.58;234049;1199;138971;-55
2022/07/13 02:11:04;;;;;;;4.70;1.90;;;;;;;17.59;52.67;99121.84;234292;1199;139155;-58
2022/07/13 02:16:07;;;;;;;9.20;1.60;;;;;;;17.56;52.54;99115.63;234150;1199;138423;-58
2022/07/13 02:21:12;;;;;;;4.30;1.90;;;;;;;17.47;52.50;99113.05;234145;1199;138860;-56
2022/07/13 02:26:16;;;;;;;7.30;1.50;;;;;;;17.37;52.51;99107.89;234208;1199;139179;-58
2022/07/13 02:31:19;;;;;;;4.60;1.60;;;;;;;17.31;52.82;99107.50;234209;1199;138692;-57
2022/07/13 02:36:22;;;;;;;4.40;1.50;;;;;;;17.28;52.83;99109.35;234104;1200;138821;-61
2022/07/13 02:41:25;;;;;;;4.40;1.60;;;;;;;17.27;52.92;99111.25;234206;1200;138853;-59
2022/07/13 02:46:28;;;;;;;5.60;1.80;;;;;;;17.24;52.87;99115.43;234223;1199;138560;-59
2022/07/13 02:51:31;;;;;;;7.10;1.60;;;;;;;17.23;53.02;99111.92;234078;1199;138696;-57
2022/07/13 02:56:35;;;;;;;4.80;1.60;;;;;;;17.19;52.97;99110.33;233848;1200;138639;-61
2022/07/13 03:01:38;;;;;;;5.10;1.80;;;;;;;17.13;52.95;99110.46;234008;1199;138871;-60
2022/07/13 03:06:41;;;;;;;3.70;1.70;;;;;;;17.09;53.15;99112.99;234136;1199;138567;-58
2022/07/13 03:11:45;;;;;;;5.00;1.80;;;;;;;17.05;52.99;99115.55;234126;1199;138891;-58
2022/07/13 03:16:49;;;;;;;7.50;1.90;;;;;;;17.01;53.17;99121.37;234415;1199;138953;-59
2022/07/13 03:21:52;;;;;;;4.80;1.80;;;;;;;17.01;53.22;99127.48;234250;1199;138650;-59
2022/07/13 03:26:55;;;;;;;3.80;1.90;;;;;;;17.03;53.32;99136.81;234216;1199;138949;-58
2022/07/13 03:31:58;;;;;;;4.80;1.90;;;;;;;17.04;53.44;99132.80;234118;1201;138449;-57
2022/07/13 03:37:03;;;;;;;6.10;1.80;;;;;;;17.03;53.49;99137.16;234171;1199;139012;-61
2022/07/13 03:42:06;;;;;;;7.50;1.80;;;;;;;17.05;53.47;99136.50;234029;1199;139494;-61
2022/07/13 03:47:09;;;;;;;3.90;1.70;;;;;;;17.03;53.85;99129.89;234334;1199;139243;-60
2022/07/13 03:52:13;;;;;;;5.60;1.80;;;;;;;17.02;53.66;99132.06;234115;1199;138529;-61
2022/07/13 03:57:16;;;;;;;4.20;2.10;;;;;;;17.07;54.16;99137.00;234171;1199;138625;-60
2022/07/13 04:02:18;;;;;;;6.40;2.00;;;;;;;17.13;54.18;99137.05;234113;1199;138822;-61
2022/07/13 04:07:22;;;;;;;3.30;1.90;;;;;;;17.21;54.33;99133.65;234140;1199;138516;-61
2022/07/13 04:12:26;;;;;;;4.70;2.10;;;;;;;17.29;54.28;99132.56;234206;1199;139719;-61
2022/07/13 04:17:29;;;;;;;3.80;2.00;;;;;;;17.36;54.33;99129.49;234283;1199;138751;-59
2022/07/13 04:22:32;;;;;;;9.50;2.20;;;;;;;17.40;54.28;99132.29;233947;1200;138667;-61
2022/07/13 04:27:35;;;;;;;6.80;2.40;;;;;;;17.42;54.37;99132.71;234199;1200;139256;-61
2022/07/13 04:32:39;;;;;;;5.00;2.40;;;;;;;17.43;54.53;99134.56;234146;1199;138915;-60
2022/07/13 04:37:42;;;;;;;6.90;2.10;;;;;;;17.49;54.44;99135.05;234155;1199;139673;-59
2022/07/13 04:42:45;;;;;;;5.80;2.20;;;;;;;17.54;54.65;99138.48;234273;1199;138866;-57
2022/07/13 04:47:49;;;;;;;8.10;2.20;;;;;;;17.57;54.73;99143.55;234007;1200;139113;-61
2022/07/13 04:52:52;;;;;;;6.70;2.50;;;;;;;17.60;54.73;99149.56;234231;1199;138802;-62
2022/07/13 04:57:57;;;;;;;5.20;2.20;;;;;;;17.66;54.76;99149.19;234162;1199;139171;-61
2022/07/13 05:03:01;;;;;;;4.50;2.30;;;;;;;17.71;54.81;99150.58;234118;1199;139468;-62
2022/07/13 05:08:05;;;;;;;3.90;2.20;;;;;;;17.74;54.87;99152.56;234120;1199;139408;-60
2022/07/13 05:13:08;;;;;;;5.00;2.00;;;;;;;17.76;54.96;99142.77;234053;1200;139663;-62
2022/07/13 05:18:27;;;;;;;6.80;2.50;;;;;;;17.80;55.10;99136.12;234063;1201;139725;-61
2022/07/13 05:23:34;;;;;;;6.70;2.60;;;;;;;17.81;55.02;99146.86;234231;1199;139357;-62
2022/07/13 05:28:37;;;;;;;4.70;2.20;;;;;;;17.86;55.06;99150.52;234146;1199;138742;-61
2022/07/13 05:33:41;;;;;;;4.70;2.50;;;;;;;17.91;55.20;99143.95;233805;1200;139463;-62
2022/07/13 05:38:49;;;;;;;4.50;2.10;;;;;;;17.91;55.16;99145.57;233609;1200;139067;-60
2022/07/13 05:43:52;;;;;;;5.50;2.40;;;;;;;17.91;55.27;99146.82;234031;1199;139390;-61
2022/07/13 05:48:56;;;;;;;8.90;3.60;;;;;;;17.96;55.60;99142.58;234115;1200;139180;-61
2022/07/13 05:54:00;;;;;;;19.00;14.70;;;;;;;18.09;55.77;99148.02;234072;1199;139560;-60
2022/07/13 05:59:24;;;;;;;6.40;2.70;;;;;;;18.20;55.67;99146.98;234242;1200;139199;-60
2022/07/13 06:04:27;;;;;;;39.90;26.00;;;;;;;18.27;55.68;99151.56;234195;1199;139488;-61
2022/07/13 06:09:30;;;;;;;4.40;2.60;;;;;;;18.32;55.75;99158.28;234157;1199;139057;-58
2022/07/13 06:14:33;;;;;;;4.80;2.30;;;;;;;18.38;55.85;99148.75;234131;1199;139236;-58
2022/07/13 06:19:36;;;;;;;8.40;2.50;;;;;;;18.50;55.92;99138.34;234188;1199;138705;-59
2022/07/13 06:24:41;;;;;;;6.40;2.30;;;;;;;18.61;55.79;99135.65;234067;1199;139796;-59
2022/07/13 06:29:44;;;;;;;7.00;2.50;;;;;;;18.73;55.88;99134.18;234312;1199;139290;-60
2022/07/13 06:34:47;;;;;;;51.10;42.70;;;;;;;18.85;55.80;99133.09;234170;1199;139412;-60
2022/07/13 06:39:50;;;;;;;5.10;2.70;;;;;;;18.94;55.86;99128.41;234158;1199;139105;-60
2022/07/13 06:44:53;;;;;;;3.90;2.10;;;;;;;19.01;55.89;99124.16;234139;1199;138756;-61
2022/07/13 06:49:55;;;;;;;6.40;2.20;;;;;;;19.12;56.13;99129.08;234126;1199;139607;-59
2022/07/13 06:54:58;;;;;;;8.20;3.00;;;;;;;19.21;55.93;99129.09;234033;1200;138697;-57
2022/07/13 07:00:05;;;;;;;4.20;2.00;;;;;;;19.30;55.91;99128.09;234297;1199;140610;-59
2022/07/13 07:05:11;;;;;;;5.00;1.80;;;;;;;19.38;55.92;99130.66;234210;1199;139744;-60
2022/07/13 07:10:14;;;;;;;7.50;2.30;;;;;;;19.47;55.92;99134.52;234142;1199;139100;-60
2022/07/13 07:15:17;;;;;;;13.00;9.90;;;;;;;19.55;55.87;99128.50;234164;1199;138624;-60
2022/07/13 07:20:20;;;;;;;4.90;2.30;;;;;;;19.68;55.81;99125.27;234137;1200;139642;-60
2022/07/13 07:25:23;;;;;;;3.30;1.90;;;;;;;19.82;55.94;99129.66;234056;1199;138663;-60
2022/07/13 07:30:26;;;;;;;9.80;2.10;;;;;;;19.96;55.93;99124.48;234141;1200;138939;-60
2022/07/13 07:35:29;;;;;;;4.30;1.90;;;;;;;20.11;55.84;99127.82;234299;1199;139537;-60
2022/07/13 07:40:32;;;;;;;3.90;1.60;;;;;;;20.24;55.72;99124.70;234102;1199;139060;-60
2022/07/13 07:45:35;;;;;;;4.40;1.90;;;;;;;20.39;55.63;99124.83;234129;1199;139113;-56
2022/07/13 07:50:38;;;;;;;4.50;2.00;;;;;;;20.52;55.30;99135.98;234026;1199;138729;-59
2022/07/13 07:55:40;;;;;;;4.40;1.80;;;;;;;20.63;55.25;99134.33;234138;1199;229675;-57
2022/07/13 08:00:44;;;;;;;24.50;15.90;;;;;;;20.75;55.22;99130.70;234105;1199;139067;-60
2022/07/13 08:05:48;;;;;;;7.70;3.50;;;;;;;20.91;55.08;99124.07;234084;1199;139023;-59
2022/07/13 08:10:52;;;;;;;5.80;1.80;;;;;;;21.05;54.93;99129.96;234198;1199;139636;-61
2022/07/13 08:15:55;;;;;;;4.00;2.40;;;;;;;21.18;54.72;99124.98;234110;1199;138649;-60
2022/07/13 08:20:58;;;;;;;4.40;1.70;;;;;;;21.34;54.71;99116.52;234095;1199;138845;-58
2022/07/13 08:26:01;;;;;;;4.70;1.70;;;;;;;21.49;54.59;99113.49;234103;1200;139094;-59
2022/07/13 08:31:05;;;;;;;4.10;1.90;;;;;;;21.63;54.16;99121.39;234201;1199;139227;-60
2022/07/13 08:41:30;;;;;;;3.40;2.20;;;;;;;21.94;53.84;99114.41;234256;1199;139747;-60
2022/07/13 08:46:33;;;;;;;4.00;1.60;;;;;;;22.09;53.47;99110.08;234178;1199;140193;-60
2022/07/13 08:51:37;;;;;;;7.70;2.90;;;;;;;22.22;52.97;99111.95;234155;1199;139704;-60
2022/07/13 08:56:41;;;;;;;3.50;1.30;;;;;;;22.33;52.52;99108.54;234025;1199;138866;-59
2022/07/13 09:01:44;;;;;;;5.00;1.40;;;;;;;22.48;52.46;99114.28;234237;1199;138949;-57
2022/07/13 09:06:51;;;;;;;6.20;1.30;;;;;;;22.61;52.01;99112.64;234213;1199;139323;-59
2022/07/13 09:12:19;;;;;;;59.80;47.20;;;;;;;22.77;51.59;99108.22;234112;1199;138634;-60
2022/07/13 09:17:31;;;;;;;5.40;2.10;;;;;;;22.95;51.27;99104.20;234327;1199;139723;-59
2022/07/13 09:22:44;;;;;;;3.50;1.00;;;;;;;23.12;51.03;99099.02;234133;1199;140894;-58
2022/07/13 09:27:47;;;;;;;41.00;30.70;;;;;;;23.27;50.67;99102.06;234076;1199;139967;-57
2022/07/13 09:32:53;;;;;;;6.40;3.00;;;;;;;23.40;50.32;99108.49;234176;1199;139507;-59
2022/07/13 09:37:57;;;;;;;6.10;1.30;;;;;;;23.49;50.12;99110.77;234141;1199;139493;-57
2022/07/13 09:48:23;;;;;;;2.90;1.00;;;;;;;23.58;49.56;99120.88;234122;1199;138888;-59
2022/07/13 09:53:30;;;;;;;2.10;1.30;;;;;;;23.67;49.50;99120.05;234287;1199;139866;-58
2022/07/13 09:58:36;;;;;;;4.40;1.10;;;;;;;23.78;49.07;99120.61;234098;1199;138901;-57
2022/07/13 10:03:40;;;;;;;188.10;124.50;;;;;;;23.88;48.60;99113.94;234088;1199;139545;-57
2022/07/13 10:08:53;;;;;;;7.70;3.60;;;;;;;24.10;48.50;99110.98;233971;1199;139939;-56
2022/07/13 10:14:04;;;;;;;2.50;1.40;;;;;;;24.34;48.13;99117.68;233958;1200;138897;-56
2022/07/13 10:19:10;;;;;;;5.50;1.10;;;;;;;24.43;47.74;99112.09;234109;1199;139091;-56
2022/07/13 10:24:15;;;;;;;3.90;1.50;;;;;;;24.70;47.62;99104.90;234110;1199;139287;-56
2022/07/13 10:29:18;;;;;;;5.40;1.60;;;;;;;24.98;47.10;99108.61;234065;1199;139219;-57
2022/07/13 10:34:52;;;;;;;45.10;39.60;;;;;;;25.09;46.61;99112.59;233742;1199;138842;-57
2022/07/13 10:40:15;;;;;;;7.30;2.00;;;;;;;25.33;46.34;99106.92;234112;1199;140028;-57
2022/07/13 10:45:40;;;;;;;6.70;1.10;;;;;;;25.51;45.95;99107.83;234083;1199;138827;-55
2022/07/13 10:50:45;;;;;;;4.20;1.00;;;;;;;25.64;45.60;99108.85;234101;1199;139577;-55
2022/07/13 10:55:49;;;;;;;3.80;1.50;;;;;;;25.76;45.52;99116.13;234155;1199;139031;-57
2022/07/13 11:01:02;;;;;;;3.40;1.20;;;;;;;25.84;44.82;99118.59;234066;1199;139274;-56
2022/07/13 11:06:14;;;;;;;3.80;1.00;;;;;;;25.78;44.50;99112.05;234106;1199;139113;-57
2022/07/13 11:11:18;;;;;;;3.40;1.00;;;;;;;25.88;44.57;99111.29;234216;1199;139041;-55
2022/07/13 11:16:48;;;;;;;39.60;23.30;;;;;;;26.13;44.27;99112.75;233950;1199;139792;-58
2022/07/13 11:22:08;;;;;;;6.00;1.40;;;;;;;26.38;43.76;99110.84;233956;1200;139484;-57
2022/07/13 11:27:19;;;;;;;4.10;0.90;;;;;;;26.56;43.41;99110.48;234004;1199;139498;-58
2022/07/13 11:32:22;;;;;;;3.00;0.90;;;;;;;26.71;43.02;99103.23;234081;1199;139137;-57
2022/07/13 11:37:25;;;;;;;23.80;19.30;;;;;;;26.86;42.89;99095.07;234043;1199;140524;-56
2022/07/13 11:42:28;;;;;;;5.70;1.80;;;;;;;26.96;42.45;99080.38;233957;1199;139103;-56
2022/07/13 11:47:31;;;;;;;2.20;1.00;;;;;;;27.22;42.35;99077.34;234022;1200;138998;-57
2022/07/13 11:52:34;;;;;;;8.40;1.10;;;;;;;27.43;41.84;99066.42;234080;1199;139623;-56
2022/07/13 11:57:37;;;;;;;3.60;1.00;;;;;;;27.51;41.45;99065.46;234022;1199;138855;-56
2022/07/13 12:02:40;;;;;;;2.20;0.90;;;;;;;27.65;41.14;99073.47;234026;1199;139360;-57
2022/07/13 12:07:44;;;;;;;5.50;0.90;;;;;;;27.84;40.90;99074.91;234077;1199;139090;-57
2022/07/13 12:12:48;;;;;;;3.20;0.90;;;;;;;27.99;40.58;99071.00;234025;1199;139787;-56
2022/07/13 12:17:53;;;;;;;2.10;1.00;;;;;;;28.01;40.45;99070.45;233968;1199;139163;-55
2022/07/13 12:22:57;;;;;;;4.20;0.90;;;;;;;28.29;40.42;99072.33;234180;1199;138895;-56
2022/07/13 12:28:03;;;;;;;;;;;;;;;28.41;40.34;99073.27;234058;1199;138980;-56
2022/07/13 12:33:10;;;;;;;7.00;0.80;;;;;;;28.45;39.70;99077.11;233981;1199;125558;-56
2022/07/13 12:38:14;;;;;;;1.30;0.70;;;;;;;28.73;39.60;99076.23;233962;1199;138746;-56
2022/07/13 12:43:25;;;;;;;;;;;;;;;29.07;39.19;99076.09;234122;1199;139718;-56
2022/07/13 12:48:34;;;;;;;2.60;0.70;;;;;;;29.25;38.82;99076.27;234115;1199;125720;-56
2022/07/13 12:53:56;;;;;;;2.30;0.80;;;;;;;29.41;38.30;99063.27;234226;1199;138757;-56
2022/07/13 12:59:05;;;;;;;4.40;0.90;;;;;;;29.22;37.45;99072.81;234238;1199;138834;-57
2022/07/13 13:04:11;;;;;;;5.60;1.10;;;;;;;29.07;37.49;99064.59;234126;1199;139505;-56
2022/07/13 13:09:16;;;;;;;4.10;1.20;;;;;;;29.20;37.59;99063.24;234041;1199;138931;-56
2022/07/13 13:14:19;;;;;;;7.80;0.90;;;;;;;29.34;37.26;99055.37;234068;1199;139692;-56
2022/07/13 13:19:22;;;;;;;3.40;0.70;;;;;;;29.56;37.26;99052.26;234046;1199;139180;-55
2022/07/13 13:24:25;;;;;;;7.00;0.90;;;;;;;29.71;36.80;99051.52;234028;1199;139044;-56
2022/07/13 13:34:50;;;;;;;8.30;3.00;;;;;;;29.19;36.37;99066.84;234126;1199;139317;-55
2022/07/13 13:39:53;;;;;;;30.40;25.80;;;;;;;29.04;36.54;99064.27;234040;1199;139048;-57
2022/07/13 13:44:56;;;;;;;4.00;2.60;;;;;;;29.04;36.59;99070.63;234126;1199;139080;-56
2022/07/13 13:49:59;;;;;;;5.20;2.40;;;;;;;29.04;36.77;99064.09;234060;1199;138987;-55
2022/07/13 13:55:03;;;;;;;9.30;1.60;;;;;;;29.17;36.97;99065.45;234075;1199;162320;-55
2022/07/13 14:00:07;;;;;;;3.60;1.10;;;;;;;29.55;36.98;99058.45;233932;1199;139124;-56
2022/07/13 14:05:30;;;;;;;6.50;1.40;;;;;;;29.71;36.38;99054.14;234042;1199;138593;-54
2022/07/13 14:10:33;;;;;;;4.00;1.30;;;;;;;29.56;36.18;99052.00;234014;1199;138724;-55
2022/07/13 14:15:36;;;;;;;2.20;0.90;;;;;;;29.50;36.15;99049.02;233955;1199;138638;-55
2022/07/13 14:20:40;;;;;;;5.00;1.20;;;;;;;29.40;36.10;99048.85;234119;1199;139097;-55
2022/07/13 14:25:43;;;;;;;1.70;1.20;;;;;;;29.37;36.23;99041.85;233890;1199;138818;-56
2022/07/13 14:30:46;;;;;;;2.00;1.20;;;;;;;29.13;35.97;99039.02;234071;1199;138686;-55
2022/07/13 14:35:49;;;;;;;4.60;1.40;;;;;;;28.87;36.24;99037.95;233908;1199;139198;-55
2022/07/13 14:40:52;;;;;;;48.70;40.80;;;;;;;28.69;36.35;99037.69;234141;1199;139006;-55
2022/07/13 14:45:55;;;;;;;6.90;2.70;;;;;;;28.65;36.56;99037.30;234064;1199;138839;-54
2022/07/13 14:50:59;;;;;;;2.50;1.80;;;;;;;28.69;36.66;99040.25;233962;1199;139010;-54
2022/07/13 14:56:18;;;;;;;6.60;2.80;;;;;;;28.66;36.78;99038.86;233923;1199;139105;-55
2022/07/13 15:01:22;;;;;;;3.00;1.40;;;;;;;28.64;36.66;99034.91;234023;1199;138880;-55
2022/07/13 15:06:26;;;;;;;3.60;1.00;;;;;;;28.54;36.78;99034.88;233945;1199;139241;-56
2022/07/13 15:11:29;;;;;;;1.90;0.90;;;;;;;28.40;36.72;99033.09;234151;1199;138564;-55
2022/07/13 15:16:33;;;;;;;4.00;1.20;;;;;;;28.27;36.65;99034.45;234019;1199;139153;-55
2022/07/13 15:21:38;;;;;;;2.10;1.30;;;;;;;28.16;36.78;99032.64;234016;1199;139358;-55
2022/07/13 15:26:41;;;;;;;3.70;1.20;;;;;;;28.10;36.87;99024.55;234028;1199;138632;-56
2022/07/13 15:31:44;;;;;;;43.80;37.50;;;;;;;28.00;36.95;99029.16;234052;1199;138238;-55
2022/07/13 15:36:47;;;;;;;7.20;4.00;;;;;;;27.90;37.04;99030.81;233907;1199;139359;-56
2022/07/13 15:41:50;;;;;;;4.60;2.40;;;;;;;27.77;37.12;99031.59;234051;1199;138678;-57
2022/07/13 15:46:53;;;;;;;5.90;1.70;;;;;;;27.63;37.15;99026.51;234093;1199;139003;-56
2022/07/13 15:51:56;;;;;;;4.20;1.40;;;;;;;27.55;37.38;99032.97;234080;1199;139070;-57
2022/07/13 15:56:59;;;;;;;5.30;1.40;;;;;;;27.56;37.52;99028.21;234007;1199;140057;-57
2022/07/13 16:02:03;;;;;;;4.00;1.20;;;;;;;27.54;37.59;99022.19;233919;1199;139796;-57
2022/07/13 16:07:06;;;;;;;6.70;1.30;;;;;;;27.54;37.58;99021.14;234048;1199;138505;-56
2022/07/13 16:12:09;;;;;;;7.50;1.40;;;;;;;27.55;37.59;99017.48;234068;1199;138979;-56
2022/07/13 16:17:12;;;;;;;4.10;1.40;;;;;;;27.61;37.54;99015.48;234002;1199;139386;-56
2022/07/13 16:22:15;;;;;;;2.50;1.10;;;;;;;27.64;37.51;99011.70;233969;1199;139643;-56
2022/07/13 16:27:18;;;;;;;1.80;1.30;;;;;;;27.63;37.50;99014.39;234148;1199;139648;-56
2022/07/13 16:32:21;;;;;;;4.20;1.10;;;;;;;27.60;37.50;99010.10;233997;1199;139597;-57
2022/07/13 16:37:24;;;;;;;101.10;80.20;;;;;;;27.57;37.64;99011.09;233794;1199;138790;-55
2022/07/13 16:42:27;;;;;;;18.20;12.00;;;;;;;27.53;37.74;99014.91;234033;1199;139254;-55
2022/07/13 16:47:30;;;;;;;4.90;1.90;;;;;;;27.49;37.83;99010.56;233992;1199;139826;-55
2022/07/13 16:52:33;;;;;;;2.70;1.50;;;;;;;27.45;37.92;99009.76;233990;1199;139372;-56
2022/07/13 16:57:36;;;;;;;6.90;2.00;;;;;;;27.42;37.89;99009.31;234165;1199;138853;-56
2022/07/13 17:02:39;;;;;;;3.10;1.70;;;;;;;27.40;38.12;99005.45;234047;1199;139712;-56
2022/07/13 17:07:42;;;;;;;3.70;2.20;;;;;;;27.37;38.11;99006.35;233796;1199;139295;-56
2022/07/13 17:12:45;;;;;;;10.20;4.80;;;;;;;27.33;38.13;99006.42;234074;1199;138803;-57
2022/07/13 17:17:54;;;;;;;5.40;2.00;;;;;;;27.29;38.22;99009.94;234003;1199;138807;-58
2022/07/13 17:22:57;;;;;;;163.70;132.40;;;;;;;27.27;38.32;99007.23;234026;1199;138627;-57
2022/07/13 17:28:00;;;;;;;10.00;5.00;;;;;;;27.25;38.48;99006.82;233984;1199;139544;-57
2022/07/13 17:33:03;;;;;;;9.40;5.00;;;;;;;27.24;38.59;99002.56;234174;1199;138452;-56
2022/07/13 17:38:06;;;;;;;10.10;4.20;;;;;;;27.23;38.62;99001.84;234003;1199;138858;-55
2022/07/13 17:43:10;;;;;;;6.00;2.40;;;;;;;27.19;38.63;99003.17;233876;1199;139683;-56
2022/07/13 17:48:14;;;;;;;3.70;1.20;;;;;;;27.15;38.69;99004.33;234145;1199;138312;-56
2022/07/13 17:53:17;;;;;;;6.50;1.80;;;;;;;27.12;38.68;99001.05;234032;1199;138484;-54
2022/07/13 17:58:21;;;;;;;158.50;134.60;;;;;;;27.09;38.76;99002.29;234040;1199;138381;-56
2022/07/13 18:03:24;;;;;;;21.90;19.70;;;;;;;27.10;38.79;98999.23;234075;1199;139496;-57
2022/07/13 18:08:27;;;;;;;5.20;3.10;;;;;;;27.10;38.83;99001.98;233964;1199;139112;-57
2022/07/13 18:13:31;;;;;;;7.40;3.10;;;;;;;27.10;38.87;99006.13;234001;1199;138580;-55
2022/07/13 18:18:34;;;;;;;6.10;4.20;;;;;;;27.06;38.80;99007.24;233899;1199;138896;-58
2022/07/13 18:23:51;;;;;;;9.10;2.20;;;;;;;27.01;39.04;99009.72;234161;1199;138514;-56
2022/07/13 18:28:58;;;;;;;7.90;6.60;;;;;;;26.92;39.01;99008.75;233795;1199;138706;-57
2022/07/13 18:34:04;;;;;;;4.00;2.70;;;;;;;26.80;39.11;99014.30;234083;1199;138257;-55
2022/07/13 18:39:08;;;;;;;112.30;95.10;;;;;;;26.75;39.22;99014.10;233988;1201;138939;-56
2022/07/13 18:44:10;;;;;;;6.30;4.20;;;;;;;26.70;39.37;99016.84;233970;1199;139462;-57
2022/07/13 18:49:13;;;;;;;48.90;43.40;;;;;;;26.65;39.22;99018.66;234012;1199;138827;-56
2022/07/13 18:54:16;;;;;;;6.50;2.70;;;;;;;26.59;39.29;99020.16;234079;1199;139185;-57
2022/07/13 18:59:23;;;;;;;4.70;1.60;;;;;;;26.50;39.45;99021.35;233998;1199;138527;-56
2022/07/13 19:04:25;;;;;;;4.80;1.60;;;;;;;26.40;39.77;99027.27;234101;1199;139294;-57
2022/07/13 19:09:30;;;;;;;4.30;1.80;;;;;;;26.33;39.97;99028.50;234102;1199;138878;-56
2022/07/13 19:14:33;;;;;;;3.80;2.00;;;;;;;26.26;39.86;99031.27;234082;1199;138653;-56
2022/07/13 19:19:38;;;;;;;7.40;2.00;;;;;;;26.23;39.94;99032.69;233997;1199;138654;-57
2022/07/13 19:30:09;;;;;;;5.00;2.00;;;;;;;26.12;39.88;99029.57;233948;1199;138490;-56
2022/07/13 19:35:12;;;;;;;5.50;1.90;;;;;;;26.08;40.02;99029.99;234044;1199;140714;-54
2022/07/13 19:40:14;;;;;;;3.70;1.90;;;;;;;26.01;39.98;99029.92;233913;1199;138879;-57
2022/07/13 19:45:18;;;;;;;7.10;3.10;;;;;;;25.92;40.02;99027.82;234235;1199;138894;-57
2022/07/13 19:50:21;;;;;;;3.60;2.10;;;;;;;25.85;40.22;99029.25;234064;1199;139401;-56
2022/07/13 19:55:25;;;;;;;3.70;2.30;;;;;;;25.76;40.23;99028.71;234111;1199;138371;-55
2022/07/13 20:00:28;;;;;;;8.70;2.30;;;;;;;25.69;40.46;99035.73;233529;1199;138467;-56
2022/07/13 20:05:31;;;;;;;4.10;2.40;;;;;;;25.65;40.43;99037.36;233879;1199;139424;-56
2022/07/13 20:10:34;;;;;;;6.60;2.40;;;;;;;25.58;40.63;99042.23;234098;1200;138684;-57
2022/07/13 20:15:37;;;;;;;5.30;2.30;;;;;;;25.52;40.61;99042.52;233791;1201;139372;-57
2022/07/13 20:20:40;;;;;;;8.40;2.50;;;;;;;25.47;40.70;99044.69;233553;1200;138506;-57
2022/07/13 20:25:43;;;;;;;4.50;2.20;;;;;;;25.42;40.95;99046.80;234038;1200;138763;-55
2022/07/13 20:30:46;;;;;;;4.10;2.50;;;;;;;25.36;40.95;99042.61;233745;1200;144480;-55
2022/07/13 20:35:49;;;;;;;5.50;2.70;;;;;;;25.27;41.14;99040.14;234058;1201;138757;-56
2022/07/13 20:40:52;;;;;;;6.40;2.70;;;;;;;25.13;41.47;99044.69;234406;1200;138552;-56
2022/07/13 20:45:55;;;;;;;8.40;2.70;;;;;;;25.05;41.60;99045.32;234275;1199;138351;-57
2022/07/13 20:50:58;;;;;;;6.00;2.40;;;;;;;25.00;41.81;99043.88;234230;1200;139345;-57
2022/07/13 20:56:01;;;;;;;10.50;5.10;;;;;;;24.97;41.91;99037.02;234115;1200;138718;-57
2022/07/13 21:01:04;;;;;;;4.60;2.70;;;;;;;24.91;42.00;99044.80;234218;1199;139355;-55
2022/07/13 21:06:08;;;;;;;9.50;3.10;;;;;;;24.83;42.22;99055.25;234206;1200;138655;-56
2022/07/13 21:11:12;;;;;;;9.60;3.00;;;;;;;24.76;42.35;99053.90;234298;1200;139016;-57
2022/07/13 21:16:15;;;;;;;9.90;3.00;;;;;;;24.72;42.36;99057.45;234087;1200;138733;-56
2022/07/13 21:21:19;;;;;;;7.40;3.10;;;;;;;24.68;42.61;99051.42;234183;1199;140390;-56
2022/07/13 21:26:22;;;;;;;8.50;3.20;;;;;;;24.66;42.53;99054.23;234148;1200;138741;-56
2022/07/13 21:31:25;;;;;;;9.20;3.20;;;;;;;24.65;42.61;99047.77;234080;1200;138808;-56
2022/07/13 21:36:29;;;;;;;8.20;3.30;;;;;;;24.62;42.68;99046.90;234199;1199;138547;-57
2022/07/13 21:41:32;;;;;;;7.50;4.00;;;;;;;24.59;42.71;99045.80;234286;1199;138612;-55
2022/07/13 21:46:35;;;;;;;8.80;3.30;;;;;;;24.55;42.76;99045.40;234260;1200;138536;-57
2022/07/13 21:51:38;;;;;;;13.80;4.00;;;;;;;24.50;42.84;99047.48;234159;1200;138760;-55
2022/07/13 21:56:40;;;;;;;8.70;3.80;;;;;;;24.44;42.68;99042.41;234220;1200;138829;-57
2022/07/13 22:01:43;;;;;;;7.20;3.70;;;;;;;24.38;42.79;99043.95;234231;1200;138825;-54
2022/07/13 22:06:49;;;;;;;11.50;3.80;;;;;;;24.34;42.78;99042.67;234289;1199;138536;-56
2022/07/13 22:12:30;;;;;;;8.00;3.00;;;;;;;24.32;42.83;99038.33;234206;1200;138641;-55
2022/07/13 22:18:10;;;;;;;5.30;2.70;;;;;;;24.28;42.82;99040.61;234475;1199;139245;-57
2022/07/13 22:23:51;;;;;;;5.30;2.90;;;;;;;24.24;42.93;99037.59;234368;1200;139378;-56
2022/07/13 22:29:32;;;;;;;5.80;2.60;;;;;;;24.21;43.03;99036.21;234250;1200;138513;-56
2022/07/13 22:35:13;;;;;;;5.30;2.80;;;;;;;24.18;43.10;99034.88;234243;1200;138451;-56
2022/07/13 22:40:53;;;;;;;4.70;2.60;;;;;;;24.17;43.09;99036.07;234279;1200;138747;-56
2022/07/13 22:46:34;;;;;;;9.10;3.10;;;;;;;24.14;43.15;99032.57;234246;1199;138768;-54
2022/07/13 22:52:14;;;;;;;5.50;3.00;;;;;;;24.12;43.17;99031.52;234266;1199;138686;-54
2022/07/13 22:57:55;;;;;;;8.10;3.10;;;;;;;24.10;43.23;99033.02;234243;1200;138956;-56
2022/07/13 23:03:36;;;;;;;8.10;3.40;;;;;;;24.08;43.18;99029.00;234174;1200;139941;-57
2022/07/13 23:09:16;;;;;;;9.10;3.40;;;;;;;24.03;43.22;99022.77;234301;1200;138809;-57
2022/07/13 23:14:57;;;;;;;9.00;3.70;;;;;;;24.00;43.22;99021.04;234225;1199;139092;-57
2022/07/13 23:20:37;;;;;;;8.30;3.70;;;;;;;24.01;43.38;99015.77;234120;1199;139386;-56
2022/07/13 23:26:17;;;;;;;10.40;3.70;;;;;;;23.99;43.44;99012.11;234011;1199;139022;-55
2022/07/13 23:31:32;;;;;;;8.40;4.40;;;;;;;23.93;43.60;99013.92;234029;1200;139242;-57
2022/07/13 23:36:35;;;;;;;14.10;4.20;;;;;;;23.87;43.75;99011.98;233902;1200;138824;-57
2022/07/13 23:41:39;;;;;;;8.50;4.40;;;;;;;23.84;43.90;99009.23;234027;1200;139441;-55
2022/07/13 23:46:42;;;;;;;8.30;4.20;;;;;;;23.80;43.97;99009.98;233917;1202;139262;-57
2022/07/13 23:51:45;;;;;;;10.30;4.30;;;;;;;23.74;44.09;99008.19;234069;1199;138982;-54